Time;durP1;ratioP1;P1;durP2;ratioP2;P2;SDS_P1;SDS_P2;PMS_P1;PMS_P2;Temp;Humidity;BMP_temperature;BMP_pressure;BME280_temperature;BME280_humidity;BME280_pressure;Samples;Min_cycle;Max_cycle;Signal;HPM_P1;HPM_P2
2022/11/06 00:00:28;;;;;;;7.45;5.75;;;;;;;;;;5057630;28;20038;-78
2022/11/06 00:02:57;;;;;;;9.90;6.72;;;14.30;73.00;;;;;;5056933;28;20025;-78
2022/11/06 00:08:08;;;;;;;7.65;5.30;;;14.40;72.80;;;;;;5040327;28;20094;-77
2022/11/06 00:10:33;;;;;;;8.57;5.90;;;14.50;73.20;;;;;;5061147;28;20029;-78
2022/11/06 00:12:59;;;;;;;8.50;5.28;;;14.50;72.80;;;;;;5050137;28;20032;-78
2022/11/06 00:15:25;;;;;;;8.13;5.40;;;14.60;72.80;;;;;;5058577;28;20416;-78
2022/11/06 00:17:51;;;;;;;8.55;5.68;;;14.50;71.90;;;;;;5057583;28;20026;-77
2022/11/06 00:20:17;;;;;;;7.72;5.65;;;14.60;71.90;;;;;;5058223;28;20468;-78
2022/11/06 00:22:43;;;;;;;7.35;5.55;;;;;;;;;;5047940;28;20079;-79
2022/11/06 00:25:09;;;;;;;8.15;5.50;;;14.60;71.50;;;;;;5040193;28;20025;-80
2022/11/06 00:27:36;;;;;;;7.43;5.15;;;;;;;;;;5049991;28;20087;-78
2022/11/06 00:30:02;;;;;;;8.40;6.15;;;;;;;;;;5051904;28;20104;-78
2022/11/06 00:32:28;;;;;;;9.65;6.38;;;;;;;;;;5062354;28;20052;-78
2022/11/06 00:34:54;;;;;;;11.10;6.70;;;;;;;;;;5049019;28;20036;-78
2022/11/06 00:37:20;;;;;;;11.40;6.32;;;;;;;;;;5050439;28;20033;-78
2022/11/06 00:39:47;;;;;;;9.02;5.95;;;;;;;;;;5060415;28;20078;-78
2022/11/06 00:42:13;;;;;;;8.75;6.35;;;;;;;;;;5057818;28;20037;-78
2022/11/06 00:44:39;;;;;;;8.50;5.65;;;;;;;;;;5038883;28;20045;-78
2022/11/06 00:47:05;;;;;;;10.40;6.18;;;;;;;;;;5045493;28;20036;-78
2022/11/06 00:49:31;;;;;;;11.40;8.25;;;;;;;;;;5034975;28;20053;-77
2022/11/06 00:51:56;;;;;;;11.23;6.47;;;14.10;72.10;;;;;;5026106;28;20034;-77
2022/11/06 00:54:22;;;;;;;10.15;6.93;;;14.10;72.40;;;;;;5029509;28;20104;-77
2022/11/06 00:56:47;;;;;;;8.15;5.70;;;14.00;73.20;;;;;;5046876;28;20044;-77
2022/11/06 00:59:13;;;;;;;11.98;6.50;;;13.80;73.50;;;;;;5042416;28;20025;-77
2022/11/06 01:01:42;;;;;;;8.32;5.70;;;13.80;73.90;;;;;;5052796;28;20048;-77
2022/11/06 01:04:12;;;;;;;7.82;5.60;;;13.80;73.90;;;;;;5043451;28;20071;-78
2022/11/06 01:06:40;;;;;;;7.88;5.78;;;13.80;73.90;;;;;;5044730;28;20162;-78
2022/11/06 01:09:07;;;;;;;9.00;5.22;;;13.90;73.90;;;;;;5038966;28;20087;-77
2022/11/06 01:11:36;;;;;;;9.60;5.55;;;14.00;73.60;;;;;;5040559;28;20040;-77
2022/11/06 01:14:03;;;;;;;10.35;5.55;;;14.00;73.40;;;;;;5047130;28;20033;-77
2022/11/06 01:16:30;;;;;;;7.72;4.93;;;13.90;73.30;;;;;;5051812;28;20484;-77
2022/11/06 01:18:57;;;;;;;7.72;5.40;;;13.80;73.30;;;;;;5036557;28;20082;-77
2022/11/06 01:21:29;;;;;;;8.57;5.50;;;13.80;73.50;;;;;;5051281;28;20072;-77
2022/11/06 01:24:00;;;;;;;6.28;4.70;;;13.80;73.70;;;;;;5041357;28;20485;-77
2022/11/06 01:26:27;;;;;;;7.28;5.05;;;13.90;73.80;;;;;;5039094;28;20066;-78
2022/11/06 01:28:54;;;;;;;6.45;4.65;;;13.90;73.70;;;;;;5032145;28;20128;-78
2022/11/06 01:31:22;;;;;;;7.90;5.55;;;14.00;73.50;;;;;;5044568;28;20485;-80
2022/11/06 01:33:48;;;;;;;9.48;5.28;;;14.00;73.30;;;;;;5035693;28;20022;-80
2022/11/06 01:36:16;;;;;;;7.57;5.05;;;14.00;73.20;;;;;;5035812;28;20037;-78
2022/11/06 01:38:45;;;;;;;6.65;4.38;;;14.10;73.20;;;;;;5035774;28;20016;-80
2022/11/06 01:41:14;;;;;;;6.63;4.88;;;14.10;73.20;;;;;;5052345;28;20064;-80
2022/11/06 01:43:50;;;;;;;6.95;4.95;;;14.10;73.50;;;;;;5049143;28;20103;-78
2022/11/06 01:46:17;;;;;;;6.65;4.75;;;14.10;73.10;;;;;;5030591;28;20029;-83
2022/11/06 01:48:49;;;;;;;8.30;6.10;;;14.20;73.10;;;;;;5040004;28;20549;-83
2022/11/06 01:51:15;;;;;;;8.60;5.95;;;14.20;72.90;;;;;;5035055;28;20026;-83
2022/11/06 01:53:41;;;;;;;9.35;5.85;;;14.20;72.70;;;;;;5033874;28;20017;-82
2022/11/06 01:56:09;;;;;;;8.75;5.75;;;14.20;72.40;;;;;;5034090;28;20488;-82
2022/11/06 01:58:39;;;;;;;7.30;5.32;;;14.20;72.40;;;;;;5027098;28;20022;-82
2022/11/06 02:01:06;;;;;;;6.22;4.82;;;14.20;72.30;;;;;;5044598;28;20104;-82
2022/11/06 02:03:32;;;;;;;6.05;4.90;;;14.10;72.30;;;;;;5042278;28;20036;-78
2022/11/06 02:05:59;;;;;;;7.72;4.72;;;14.20;72.40;;;;;;5040958;28;20456;-78
2022/11/06 02:08:25;;;;;;;6.70;4.25;;;14.20;72.30;;;;;;5045358;28;20037;-78
2022/11/06 02:10:51;;;;;;;5.60;4.18;;;14.20;72.30;;;;;;5053306;28;20033;-78
2022/11/06 02:14:07;;;;;;;6.47;4.28;;;14.10;71.90;;;;;;5040954;28;20021;-78
2022/11/06 02:17:01;;;;;;;7.50;4.10;;;14.20;72.60;;;;;;5006204;28;20037;-78
2022/11/06 02:19:53;;;;;;;6.57;4.38;;;14.10;72.40;;;;;;5011349;28;20033;-77
2022/11/06 02:22:38;;;;;;;7.28;4.50;;;14.10;72.50;;;;;;5040331;28;20135;-77
2022/11/06 02:25:28;;;;;;;6.25;4.57;;;14.10;72.60;;;;;;5051982;28;20489;-77
2022/11/06 02:28:07;;;;;;;6.13;4.20;;;14.00;72.80;;;;;;5036753;28;20041;-77
2022/11/06 02:30:39;;;;;;;6.03;3.97;;;14.20;74.00;;;;;;5046269;28;20053;-81
2022/11/06 02:33:12;;;;;;;7.07;4.25;;;14.00;72.90;;;;;;5050194;28;20399;-81
2022/11/06 02:35:43;;;;;;;5.75;4.03;;;14.50;86.40;;;;;;5038220;28;20389;-83
2022/11/06 02:38:14;;;;;;;6.88;4.18;;;14.10;93.20;;;;;;5022147;28;20041;-83
2022/11/06 02:40:47;;;;;;;5.15;3.58;;;14.00;80.70;;;;;;5034333;28;20033;-82
2022/11/06 02:43:15;;;;;;;5.25;3.85;;;14.10;72.20;;;;;;5040549;28;20037;-80
2022/11/06 02:45:52;;;;;;;7.55;4.05;;;14.00;72.20;;;;;;5037260;28;20120;-80
2022/11/06 02:48:22;;;;;;;6.72;4.20;;;14.00;72.40;;;;;;5036211;28;20354;-81
2022/11/06 02:50:49;;;;;;;;;;;14.00;86.50;;;;;;5031450;28;20033;-80
2022/11/06 02:53:18;;;;;;;5.72;4.07;;;13.90;72.90;;;;;;5039506;28;19916;-81
2022/11/06 02:55:50;;;;;;;7.30;4.53;;;14.00;72.60;;;;;;5034748;28;20108;-81
2022/11/06 02:58:20;;;;;;;5.63;4.32;;;14.00;72.40;;;;;;5039871;28;20080;-81
2022/11/06 03:01:01;;;;;;;6.22;4.75;;;14.00;72.20;;;;;;5039224;28;20061;-82
2022/11/06 03:03:30;;;;;;;5.25;4.15;;;13.70;76.70;;;;;;5046258;28;20453;-82
2022/11/06 03:06:20;;;;;;;5.10;4.03;;;14.00;72.20;;;;;;5033528;28;20033;-82
2022/11/06 03:08:53;;;;;;;6.13;3.80;;;13.90;80.70;;;;;;5041155;28;20044;-79
2022/11/06 03:11:27;;;;;;;5.55;3.60;;;;;;;;;;5030483;28;20475;-79
2022/11/06 03:14:21;;;;;;;6.72;3.90;;;14.50;72.60;;;;;;5051311;28;20040;-77
2022/11/06 03:16:50;;;;;;;4.13;3.30;;;14.00;86.50;;;;;;5039939;28;20030;-77
2022/11/06 03:19:41;;;;;;;6.20;3.63;;;14.10;72.50;;;;;;5040749;28;20361;-77
2022/11/06 03:22:11;;;;;;;6.05;4.15;;;13.90;72.80;;;;;;5033383;28;20037;-82
2022/11/06 03:24:57;;;;;;;5.07;3.72;;;13.90;72.30;;;;;;5032921;28;20029;-82
2022/11/06 03:27:37;;;;;;;5.28;3.67;;;13.90;72.80;;;;;;5027683;28;20071;-82
2022/11/06 03:30:08;;;;;;;5.07;4.00;;;13.90;73.00;;;;;;5032679;28;20457;-83
2022/11/06 03:32:48;;;;;;;5.38;3.78;;;13.90;73.00;;;;;;5018775;28;20474;-82
2022/11/06 03:35:45;;;;;;;6.32;4.22;;;13.90;73.10;;;;;;5035565;28;20029;-81
2022/11/06 03:38:19;;;;;;;5.50;3.30;;;13.80;73.20;;;;;;5033506;28;20104;-81
2022/11/06 03:40:51;;;;;;;5.50;3.35;;;13.80;73.10;;;;;;5024164;28;20030;-83
2022/11/06 03:43:22;;;;;;;4.60;3.50;;;13.80;73.00;;;;;;5044484;28;20080;-83
2022/11/06 03:45:50;;;;;;;5.95;4.15;;;13.80;73.10;;;;;;5040523;28;20036;-83
2022/11/06 03:48:22;;;;;;;4.75;3.30;;;13.70;73.00;;;;;;5033716;28;20418;-81
2022/11/06 03:51:01;;;;;;;6.28;4.00;;;13.70;73.10;;;;;;5030824;28;20040;-80
2022/11/06 03:53:46;;;;;;;4.90;3.60;;;13.70;73.10;;;;;;5036170;28;20029;-79
2022/11/06 03:56:52;;;;;;;5.82;3.92;;;13.70;73.00;;;;;;5039830;28;20052;-80
2022/11/06 03:59:22;;;;;;;4.90;4.05;;;13.70;73.20;;;;;;5020051;28;20046;-79
2022/11/06 04:01:52;;;;;;;5.93;3.85;;;13.60;73.30;;;;;;5049591;28;20035;-80
2022/11/06 04:04:20;;;;;;;;;;;13.50;73.50;;;;;;5049377;28;20029;-81
2022/11/06 04:06:53;;;;;;;6.20;4.15;;;13.40;74.50;;;;;;5038697;28;20408;-81
2022/11/06 04:14:58;;;;;;;8.38;4.32;;;13.20;73.20;;;;;;5044823;28;20041;-81
2022/11/06 04:17:27;;;;;;;7.53;4.43;;;13.20;73.70;;;;;;5041722;28;20026;-81
2022/11/06 04:19:59;;;;;;;7.47;3.73;;;13.20;74.00;;;;;;5042632;28;20127;-81
2022/11/06 04:22:43;;;;;;;5.68;4.40;;;13.10;74.10;;;;;;5047085;28;20033;-81
2022/11/06 04:28:26;;;;;;;5.13;3.25;;;12.80;75.00;;;;;;5038652;28;20548;-81
2022/11/06 04:30:51;;;;;;;6.32;4.13;;;12.70;75.30;;;;;;5051644;28;20049;-81
2022/11/06 04:33:43;;;;;;;4.07;3.55;;;12.70;75.30;;;;;;5044535;28;20096;-81
2022/11/06 04:36:11;;;;;;;4.85;3.28;;;12.80;75.50;;;;;;5043575;28;20065;-81
2022/11/06 04:38:43;;;;;;;6.45;3.45;;;12.80;75.70;;;;;;5029770;28;20035;-79
2022/11/06 04:41:49;;;;;;;4.55;3.22;;;12.90;75.10;;;;;;5034392;28;20049;-80
2022/11/06 04:44:30;;;;;;;4.20;2.60;;;13.00;74.90;;;;;;5035287;28;20036;-81
2022/11/06 04:47:02;;;;;;;3.95;2.63;;;13.00;74.00;;;;;;5042972;28;20072;-80
2022/11/06 04:49:31;;;;;;;5.13;3.38;;;12.90;73.80;;;;;;5048694;28;20029;-81
2022/11/06 04:51:58;;;;;;;4.32;2.80;;;12.90;73.90;;;;;;5035723;28;20432;-80
2022/11/06 04:54:25;;;;;;;6.10;3.45;;;12.80;73.90;;;;;;5049421;28;20439;-81
2022/11/06 04:56:51;;;;;;;6.15;2.83;;;12.80;73.90;;;;;;5051494;28;20102;-82
2022/11/06 04:59:17;;;;;;;3.83;2.85;;;12.80;73.80;;;;;;5038035;28;20481;-81
2022/11/06 05:01:45;;;;;;;4.22;3.00;;;12.90;73.50;;;;;;5044222;28;20088;-82
2022/11/06 05:04:11;;;;;;;4.82;2.97;;;12.80;73.40;;;;;;5048466;28;20029;-81
2022/11/06 05:06:37;;;;;;;4.60;3.17;;;12.90;73.60;;;;;;5049910;28;20075;-81
2022/11/06 05:09:03;;;;;;;5.18;3.00;;;13.00;73.90;;;;;;5045339;28;20413;-81
2022/11/06 05:11:29;;;;;;;5.25;2.85;;;13.00;73.50;;;;;;5046944;28;20025;-81
2022/11/06 05:13:54;;;;;;;4.05;2.53;;;13.00;73.40;;;;;;5050690;28;20088;-80
2022/11/06 05:16:20;;;;;;;4.50;2.72;;;13.10;73.30;;;;;;5048909;28;20077;-80
2022/11/06 05:18:46;;;;;;;3.47;2.60;;;13.10;73.00;;;;;;5037086;28;20041;-81
2022/11/06 05:23:56;;;;;;;2.42;1.85;;;13.20;72.50;;;;;;5043134;28;20043;-80
2022/11/06 05:26:21;;;;;;;2.70;2.20;;;13.10;72.20;;;;;;5053166;28;20029;-80
2022/11/06 05:28:47;;;;;;;2.65;2.05;;;13.20;72.10;;;;;;5038012;28;20033;-80
2022/11/06 05:31:13;;;;;;;3.03;1.95;;;13.20;71.90;;;;;;5046843;28;20158;-82
2022/11/06 05:33:38;;;;;;;2.83;2.03;;;13.20;71.70;;;;;;5053933;28;20024;-82
2022/11/06 05:36:05;;;;;;;3.67;2.03;;;13.30;71.30;;;;;;5050602;28;20025;-80
2022/11/06 05:38:31;;;;;;;3.88;2.40;;;13.30;70.60;;;;;;5046628;28;20029;-82
2022/11/06 05:40:57;;;;;;;3.95;2.30;;;13.30;70.20;;;;;;5048405;28;20421;-81
2022/11/06 05:43:23;;;;;;;5.90;2.10;;;13.40;70.10;;;;;;5052633;28;20037;-82
2022/11/06 05:45:49;;;;;;;2.97;2.10;;;13.40;70.10;;;;;;5044591;28;20504;-82
2022/11/06 05:48:15;;;;;;;1.83;1.50;;;13.40;70.10;;;;;;5035666;28;20029;-82
2022/11/06 05:50:41;;;;;;;3.17;2.05;;;13.40;70.20;;;;;;5049374;28;20145;-82
2022/11/06 05:53:06;;;;;;;2.58;2.10;;;13.40;70.00;;;;;;5033760;28;20183;-82
2022/11/06 05:55:32;;;;;;;3.70;2.10;;;13.40;69.80;;;;;;5033227;28;20021;-82
2022/11/06 05:57:58;;;;;;;3.58;2.00;;;13.40;69.80;;;;;;5037436;28;20473;-82
2022/11/06 06:00:24;;;;;;;4.90;1.95;;;13.40;69.80;;;;;;5030697;28;20091;-82
2022/11/06 06:02:50;;;;;;;2.90;2.17;;;13.40;73.00;;;;;;5041117;28;20124;-82
2022/11/06 06:05:16;;;;;;;2.92;2.13;;;13.40;69.70;;;;;;5026520;28;20033;-82
2022/11/06 06:07:42;;;;;;;2.70;2.03;;;13.40;68.90;;;;;;5034459;28;20030;-82
2022/11/06 06:10:08;;;;;;;5.38;2.05;;;13.40;69.20;;;;;;5024435;28;20469;-81
2022/11/06 06:12:34;;;;;;;5.68;2.33;;;13.30;68.60;;;;;;5025579;28;20041;-81
2022/11/06 06:15:00;;;;;;;5.60;2.10;;;13.30;68.60;;;;;;5042035;28;20028;-75
2022/11/06 06:17:26;;;;;;;2.80;2.17;;;13.30;68.80;;;;;;5034569;28;20116;-75
2022/11/06 06:19:52;;;;;;;3.25;2.00;;;13.30;68.70;;;;;;5030284;28;20416;-75
2022/11/06 06:22:18;;;;;;;3.00;2.15;;;13.30;68.60;;;;;;5028745;28;20038;-75
2022/11/06 06:24:43;;;;;;;3.22;1.88;;;13.10;67.60;;;;;;5034731;28;20039;-75
2022/11/06 06:27:09;;;;;;;3.30;1.67;;;12.80;68.10;;;;;;5027464;28;20163;-73
2022/11/06 06:29:35;;;;;;;4.22;2.38;;;12.80;68.60;;;;;;5032364;28;20709;-73
2022/11/06 06:32:00;;;;;;;2.60;2.03;;;12.70;67.70;;;;;;5037836;28;20045;-73
2022/11/06 06:34:26;;;;;;;6.97;1.85;;;12.70;68.90;;;;;;5050274;28;20064;-76
2022/11/06 06:36:53;;;;;;;2.38;1.95;;;12.70;69.20;;;;;;5044067;28;20029;-73
2022/11/06 06:39:19;;;;;;;2.90;2.05;;;12.70;68.60;;;;;;5038899;28;20021;-77
2022/11/06 06:41:46;;;;;;;6.72;2.00;;;12.60;68.60;;;;;;5045180;28;20159;-74
2022/11/06 06:44:12;;;;;;;4.20;2.30;;;12.60;68.70;;;;;;5034618;28;20037;-73
2022/11/06 06:46:37;;;;;;;2.47;1.52;;;12.60;68.80;;;;;;5036339;28;20112;-75
2022/11/06 06:49:03;;;;;;;3.70;2.47;;;12.70;68.90;;;;;;5033649;28;20080;-75
2022/11/06 06:51:31;;;;;;;3.80;2.30;;;12.70;68.10;;;;;;5046717;28;20040;-75
2022/11/06 06:53:59;;;;;;;2.38;1.52;;;12.60;68.40;;;;;;5053811;28;20400;-75
2022/11/06 06:56:24;;;;;;;3.53;1.88;;;12.50;68.70;;;;;;5031813;28;20034;-75
2022/11/06 06:58:53;;;;;;;2.63;1.70;;;12.50;68.80;;;;;;5041900;28;20025;-76
2022/11/06 07:01:19;;;;;;;3.10;1.67;;;12.60;68.70;;;;;;5045542;28;20123;-74
2022/11/06 07:03:45;;;;;;;2.00;1.50;;;12.50;68.50;;;;;;5036604;28;20084;-74
2022/11/06 07:06:11;;;;;;;2.35;1.60;;;12.70;69.00;;;;;;5032194;28;20079;-74
2022/11/06 07:08:36;;;;;;;2.50;1.90;;;12.70;68.60;;;;;;5040868;28;20036;-73
2022/11/06 07:11:05;;;;;;;2.55;1.70;;;12.80;72.20;;;;;;5052751;28;20029;-73
2022/11/06 07:13:30;;;;;;;5.32;2.03;;;13.00;68.60;;;;;;5053258;28;20029;-73
2022/11/06 07:15:56;;;;;;;2.22;1.58;;;13.00;69.10;;;;;;5040202;28;20029;-73
2022/11/06 07:18:22;;;;;;;3.25;1.95;;;13.10;68.90;;;;;;5032942;28;20099;-74
2022/11/06 07:20:48;;;;;;;2.15;1.33;;;13.20;68.90;;;;;;5032889;28;20036;-73
2022/11/06 07:23:14;;;;;;;1.88;1.17;;;13.20;68.50;;;;;;5032988;28;20107;-74
2022/11/06 07:25:39;;;;;;;2.08;1.17;;;13.30;68.00;;;;;;5032971;28;20033;-73
2022/11/06 07:28:06;;;;;;;3.72;1.55;;;13.30;68.00;;;;;;5031696;28;20037;-74
2022/11/06 07:30:34;;;;;;;2.80;1.88;;;13.40;67.90;;;;;;5032905;28;20045;-74
2022/11/06 07:33:04;;;;;;;2.42;1.52;;;13.40;67.90;;;;;;5034060;28;20018;-74
2022/11/06 07:35:31;;;;;;;;;;;13.60;67.50;;;;;;5026694;28;20036;-74
2022/11/06 07:37:57;;;;;;;2.47;1.63;;;13.50;67.40;;;;;;5034996;28;19958;-74
2022/11/06 07:40:23;;;;;;;3.60;1.50;;;13.90;67.70;;;;;;5048263;28;20441;-73
2022/11/06 07:42:48;;;;;;;1.38;1.15;;;13.50;66.80;;;;;;5031438;28;20036;-73
2022/11/06 07:45:14;;;;;;;2.10;1.50;;;13.60;67.50;;;;;;5032438;28;20053;-73
2022/11/06 07:47:40;;;;;;;1.40;1.00;;;13.60;66.40;;;;;;5032567;28;20049;-73
2022/11/06 07:50:06;;;;;;;2.47;1.15;;;13.70;67.00;;;;;;5052762;28;20060;-74
2022/11/06 07:52:32;;;;;;;2.50;1.40;;;13.90;69.10;;;;;;5052938;28;20560;-73
2022/11/06 07:54:58;;;;;;;2.72;1.70;;;13.80;67.10;;;;;;5047974;28;20096;-74
2022/11/06 07:57:24;;;;;;;5.50;1.83;;;13.90;69.40;;;;;;5035428;28;20072;-73
2022/11/06 07:59:51;;;;;;;2.03;1.83;;;13.90;67.30;;;;;;5053802;28;20053;-74
2022/11/06 08:02:17;;;;;;;3.17;1.55;;;13.90;67.00;;;;;;5039225;28;20441;-73
2022/11/06 08:04:43;;;;;;;2.63;1.23;;;13.90;67.10;;;;;;5035930;28;20057;-74
2022/11/06 08:07:09;;;;;;;1.98;1.08;;;14.00;66.70;;;;;;5037418;28;20036;-73
2022/11/06 08:09:35;;;;;;;1.65;1.10;;;14.10;75.70;;;;;;5050564;28;20033;-74
2022/11/06 08:12:01;;;;;;;1.95;1.20;;;14.20;66.70;;;;;;5053960;28;20040;-75
2022/11/06 08:14:26;;;;;;;1.52;1.05;;;14.40;65.90;;;;;;5045938;28;20032;-74
2022/11/06 08:16:52;;;;;;;2.25;1.20;;;14.50;76.60;;;;;;5056260;28;20037;-75
2022/11/06 08:19:18;;;;;;;2.63;1.23;;;14.70;66.00;;;;;;5056205;28;20029;-75
2022/11/06 08:21:43;;;;;;;1.50;1.00;;;15.00;65.50;;;;;;5035161;28;20052;-79
2022/11/06 08:24:09;;;;;;;1.88;1.10;;;15.10;66.10;;;;;;5038129;28;20421;-74
2022/11/06 08:26:35;;;;;;;8.85;1.42;;;15.30;65.30;;;;;;5027015;28;20116;-74
2022/11/06 08:29:01;;;;;;;1.30;1.00;;;15.50;67.50;;;;;;5021732;28;20037;-74
2022/11/06 08:31:26;;;;;;;1.77;1.10;;;15.70;66.80;;;;;;5026804;28;20481;-74
2022/11/06 08:33:52;;;;;;;1.55;1.20;;;15.90;64.30;;;;;;5039149;28;20021;-77
2022/11/06 08:36:18;;;;;;;3.35;1.30;;;16.00;65.10;;;;;;5029995;28;20469;-77
2022/11/06 08:38:46;;;;;;;2.10;1.38;;;16.10;63.20;;;;;;5040316;28;20476;-76
2022/11/06 08:41:12;;;;;;;1.05;0.77;;;16.30;63.40;;;;;;5041643;28;20048;-77
2022/11/06 08:43:39;;;;;;;1.30;0.98;;;16.40;62.50;;;;;;5037370;28;20092;-74
2022/11/06 08:46:06;;;;;;;1.50;0.98;;;16.40;63.30;;;;;;5046153;28;20083;-74
2022/11/06 08:48:32;;;;;;;2.10;0.90;;;16.50;63.40;;;;;;5048639;28;20078;-74
2022/11/06 08:50:58;;;;;;;4.07;1.08;;;16.60;60.30;;;;;;5043040;28;20112;-74
2022/11/06 08:53:24;;;;;;;1.00;0.90;;;16.60;62.10;;;;;;5041939;28;20112;-74
2022/11/06 08:55:50;;;;;;;1.35;1.05;;;16.60;61.20;;;;;;5034683;28;20441;-74
2022/11/06 08:58:16;;;;;;;1.55;0.80;;;16.70;60.00;;;;;;5033912;28;20502;-75
2022/11/06 09:00:42;;;;;;;1.30;0.90;;;16.80;59.80;;;;;;5034557;28;20088;-75
2022/11/06 09:03:13;;;;;;;2.22;0.80;;;16.90;58.50;;;;;;5033131;28;20030;-74
2022/11/06 09:05:40;;;;;;;1.65;1.00;;;17.00;59.50;;;;;;5065728;28;20387;-73
2022/11/06 09:08:07;;;;;;;1.83;0.98;;;17.10;60.30;;;;;;5034834;28;20534;-74
2022/11/06 09:10:33;;;;;;;0.73;0.68;;;17.10;61.10;;;;;;5032480;28;20021;-75
2022/11/06 09:12:59;;;;;;;3.17;1.10;;;17.70;61.20;;;;;;5035102;28;20117;-82
2022/11/06 09:15:25;;;;;;;2.58;1.00;;;17.40;61.00;;;;;;5032564;28;20100;-74
2022/11/06 09:17:51;;;;;;;3.05;1.35;;;17.50;55.90;;;;;;5036650;28;20048;-74
2022/11/06 09:20:20;;;;;;;1.25;0.93;;;17.30;57.10;;;;;;5032670;28;20060;-75
2022/11/06 09:22:46;;;;;;;1.17;0.75;;;17.40;58.80;;;;;;5030234;28;20473;-76
2022/11/06 09:25:13;;;;;;;1.65;0.90;;;17.60;59.30;;;;;;5038402;28;20041;-75
2022/11/06 09:27:46;;;;;;;2.17;1.02;;;17.90;59.60;;;;;;5034014;28;20043;-74
2022/11/06 09:30:14;;;;;;;2.28;1.38;;;18.10;59.80;;;;;;5033077;28;20084;-76
2022/11/06 09:32:52;;;;;;;1.60;1.20;;;18.20;56.60;;;;;;5027846;28;20053;-75
2022/11/06 09:35:20;;;;;;;1.40;1.08;;;18.40;58.20;;;;;;5031421;28;20053;-74
2022/11/06 09:37:47;;;;;;;1.52;0.85;;;18.60;58.40;;;;;;5029843;28;20040;-74
2022/11/06 09:40:21;;;;;;;1.17;0.90;;;18.60;57.60;;;;;;5030190;28;20081;-73
2022/11/06 09:43:11;;;;;;;1.33;0.90;;;18.70;56.80;;;;;;5031783;28;20029;-74
2022/11/06 09:45:38;;;;;;;2.95;1.00;;;18.80;56.50;;;;;;5034405;28;20044;-80
2022/11/06 09:48:22;;;;;;;1.98;0.95;;;18.90;54.90;;;;;;5033650;28;20065;-75
2022/11/06 09:51:10;;;;;;;1.67;1.00;;;19.00;56.00;;;;;;5040383;28;20086;-75
2022/11/06 09:53:47;;;;;;;3.08;1.00;;;19.20;56.30;;;;;;5036768;28;20473;-81
2022/11/06 09:56:13;;;;;;;1.70;1.05;;;19.30;56.10;;;;;;5038066;28;20090;-73
2022/11/06 09:58:43;;;;;;;2.05;1.17;;;19.50;56.10;;;;;;5027923;28;20040;-73
2022/11/06 10:01:25;;;;;;;0.82;0.80;;;19.70;56.00;;;;;;5045292;28;20108;-73
2022/11/06 10:04:00;;;;;;;1.48;0.95;;;20.00;55.80;;;;;;5032808;28;20041;-72
2022/11/06 10:06:27;;;;;;;3.38;0.93;;;20.30;55.70;;;;;;5032538;28;20060;-73
2022/11/06 10:08:58;;;;;;;1.10;0.68;;;20.40;55.30;;;;;;5037700;28;20041;-72
2022/11/06 10:11:48;;;;;;;2.08;0.95;;;20.70;54.50;;;;;;5052692;28;20095;-73
2022/11/06 10:14:19;;;;;;;1.05;0.80;;;20.80;48.70;;;;;;5038828;28;20465;-75
2022/11/06 10:17:22;;;;;;;1.02;0.80;;;20.80;52.50;;;;;;5040646;28;20048;-75
2022/11/06 10:20:06;;;;;;;0.80;0.60;;;21.10;51.80;;;;;;5034040;28;20069;-76
2022/11/06 10:22:34;;;;;;;0.82;0.77;;;21.20;51.00;;;;;;5033369;28;20048;-75
2022/11/06 10:25:00;;;;;;;0.80;0.50;;;21.40;53.40;;;;;;5030918;28;20042;-75
2022/11/06 10:28:04;;;;;;;1.13;0.70;;;21.40;47.30;;;;;;5040502;28;20028;-75
2022/11/06 10:30:54;;;;;;;0.75;0.70;;;21.60;53.40;;;;;;5024535;28;20055;-75
2022/11/06 10:33:53;;;;;;;1.02;0.57;;;21.70;52.00;;;;;;5030817;28;20024;-75
2022/11/06 10:36:39;;;;;;;2.15;0.80;;;;;;;;;;5024535;28;20120;-75
2022/11/06 10:39:14;;;;;;;0.88;0.75;;;21.90;54.20;;;;;;5028929;28;20029;-75
2022/11/06 10:41:44;;;;;;;0.80;0.63;;;22.10;54.10;;;;;;5031241;28;20059;-82
2022/11/06 10:44:17;;;;;;;;;;;22.20;59.60;;;;;;5039116;28;20029;-80
2022/11/06 10:46:52;;;;;;;1.77;0.73;;;22.20;47.90;;;;;;5029436;28;19910;-80
2022/11/06 10:49:30;;;;;;;1.10;0.80;;;22.50;48.40;;;;;;5030255;28;20031;-80
2022/11/06 10:52:04;;;;;;;1.02;0.70;;;22.50;47.80;;;;;;5033449;28;20044;-80
2022/11/06 10:54:56;;;;;;;1.35;0.65;;;22.70;48.20;;;;;;5031370;28;20029;-83
2022/11/06 10:57:33;;;;;;;3.90;0.73;;;22.70;48.40;;;;;;5027831;28;20026;-80
2022/11/06 10:59:59;;;;;;;1.25;0.77;;;22.90;47.70;;;;;;5035400;28;20087;-80
2022/11/06 11:02:35;;;;;;;1.88;0.85;;;23.20;49.80;;;;;;5034703;28;20044;-80
2022/11/06 11:05:01;;;;;;;4.80;0.80;;;23.20;42.40;;;;;;5044509;28;20045;-79
2022/11/06 11:07:33;;;;;;;0.88;0.60;;;23.00;42.80;;;;;;5032506;28;20026;-80
2022/11/06 11:10:14;;;;;;;0.73;0.63;;;23.00;45.60;;;;;;5029507;28;20112;-79
2022/11/06 11:12:44;;;;;;;0.80;0.70;;;23.10;45.90;;;;;;5025167;28;20025;-80
2022/11/06 11:15:23;;;;;;;2.08;0.82;;;23.20;45.90;;;;;;5026541;28;20037;-80
2022/11/06 11:18:10;;;;;;;1.67;1.00;;;23.40;45.50;;;;;;5027730;28;20029;-80
2022/11/06 11:20:38;;;;;;;0.80;0.50;;;23.60;46.10;;;;;;5021458;28;20374;-80
2022/11/06 11:23:13;;;;;;;1.15;0.90;;;24.00;45.60;;;;;;5033848;28;20150;-80
2022/11/06 11:25:42;;;;;;;1.73;0.85;;;24.50;45.10;;;;;;5033634;28;20037;-80
2022/11/06 11:28:38;;;;;;;0.75;0.60;;;25.40;43.20;;;;;;5046719;28;20092;-75
2022/11/06 11:31:10;;;;;;;1.75;0.95;;;26.70;41.70;;;;;;5033627;28;20095;-75
2022/11/06 11:33:38;;;;;;;0.60;0.50;;;28.00;39.70;;;;;;5032284;28;20047;-75
2022/11/06 11:36:06;;;;;;;1.45;0.70;;;28.60;33.60;;;;;;5035242;28;20310;-75
2022/11/06 11:38:35;;;;;;;0.85;0.70;;;29.00;36.50;;;;;;5031251;28;20026;-75
2022/11/06 11:41:11;;;;;;;1.33;0.82;;;29.70;35.50;;;;;;5023838;28;20413;-75
2022/11/06 11:43:36;;;;;;;1.65;1.00;;;30.40;35.50;;;;;;5030240;28;20025;-75
2022/11/06 11:46:08;;;;;;;2.58;0.90;;;31.10;34.90;;;;;;5031698;28;20473;-75
2022/11/06 11:49:04;;;;;;;3.33;0.90;;;31.80;34.50;;;;;;5039782;28;20021;-75
2022/11/06 11:51:36;;;;;;;0.95;0.68;;;32.30;32.70;;;;;;5026969;28;20049;-81
2022/11/06 11:54:10;;;;;;;1.45;0.90;;;32.50;32.70;;;;;;5030933;28;20525;-80
2022/11/06 11:56:51;;;;;;;2.30;0.73;;;32.70;32.80;;;;;;5031637;28;20109;-80
2022/11/06 11:59:51;;;;;;;1.10;0.80;;;33.00;32.00;;;;;;5027801;28;20025;-81
2022/11/06 12:02:22;;;;;;;0.88;0.82;;;33.20;31.30;;;;;;5038506;28;20044;-81
2022/11/06 12:04:56;;;;;;;1.77;1.00;;;33.30;31.40;;;;;;5028557;28;20156;-81
2022/11/06 12:07:35;;;;;;;1.40;0.82;;;33.40;31.00;;;;;;5029822;28;20022;-81
2022/11/06 12:10:04;;;;;;;1.10;1.00;;;33.40;31.60;;;;;;5040747;28;20017;-81
2022/11/06 12:12:33;;;;;;;2.78;0.98;;;33.40;30.70;;;;;;5044192;28;20369;-81
2022/11/06 12:15:07;;;;;;;1.55;0.95;;;33.40;31.70;;;;;;5030791;28;20145;-81
2022/11/06 12:17:36;;;;;;;1.15;0.80;;;33.10;31.70;;;;;;5033281;28;20108;-81
2022/11/06 12:20:10;;;;;;;2.33;0.80;;;32.80;31.80;;;;;;5035222;28;20045;-81
2022/11/06 12:22:41;;;;;;;2.22;0.88;;;32.30;31.90;;;;;;5045544;28;20104;-75
2022/11/06 12:25:10;;;;;;;1.58;1.00;;;32.00;32.70;;;;;;5027917;28;20037;-74
2022/11/06 12:27:40;;;;;;;1.42;0.90;;;31.50;32.80;;;;;;5028699;28;20033;-75
2022/11/06 12:30:15;;;;;;;2.15;0.82;;;31.30;33.50;;;;;;5032358;28;20369;-75
2022/11/06 12:33:10;;;;;;;1.05;0.88;;;31.10;33.20;;;;;;5029129;28;20036;-75
2022/11/06 12:36:11;;;;;;;1.55;0.70;;;31.10;33.60;;;;;;5028987;28;20021;-75
2022/11/06 12:39:10;;;;;;;1.20;0.77;;;31.20;33.50;;;;;;5022288;28;20138;-75
2022/11/06 12:41:45;;;;;;;1.08;0.88;;;31.40;33.80;;;;;;5038411;28;20053;-75
2022/11/06 12:44:13;;;;;;;2.10;0.90;;;31.40;33.50;;;;;;5032041;28;20033;-76
2022/11/06 12:46:47;;;;;;;1.20;0.80;;;31.40;32.70;;;;;;5038234;28;20112;-76
2022/11/06 12:49:28;;;;;;;1.10;0.70;;;31.50;32.30;;;;;;5037827;28;20036;-77
2022/11/06 12:52:47;;;;;;;1.88;1.15;;;31.40;32.40;;;;;;5045508;28;20033;-75
2022/11/06 12:55:30;;;;;;;0.73;0.68;;;31.40;33.30;;;;;;4980745;28;20924;-76
2022/11/06 12:58:40;;;;;;;1.05;0.90;;;31.40;32.70;;;;;;5026150;28;20037;-75
2022/11/06 13:01:33;;;;;;;1.60;0.90;;;30.90;32.90;;;;;;5032842;28;20132;-75
2022/11/06 13:04:18;;;;;;;2.92;1.10;;;29.50;32.90;;;;;;5038533;28;20063;-75
2022/11/06 13:07:18;;;;;;;1.92;1.13;;;28.90;33.30;;;;;;5027962;28;20021;-75
2022/11/06 13:09:59;;;;;;;1.42;0.90;;;28.40;34.30;;;;;;5020104;28;20446;-74
2022/11/06 13:12:37;;;;;;;1.00;0.82;;;27.70;35.00;;;;;;5031959;28;20038;-75
2022/11/06 13:15:06;;;;;;;1.40;0.88;;;27.00;36.00;;;;;;5030905;28;20061;-75
2022/11/06 13:17:56;;;;;;;2.85;0.95;;;26.40;35.80;;;;;;5032116;28;20105;-80
2022/11/06 13:20:37;;;;;;;1.55;1.05;;;25.40;37.50;;;;;;5036638;28;20041;-80
2022/11/06 13:23:10;;;;;;;;;;;25.00;38.40;;;;;;5040682;28;20385;-80
2022/11/06 13:26:08;;;;;;;1.33;0.77;;;24.80;38.50;;;;;;5041689;28;19962;-81
2022/11/06 13:28:39;;;;;;;1.20;0.82;;;24.70;39.80;;;;;;5025591;28;20464;-81
2022/11/06 13:31:08;;;;;;;1.88;0.80;;;24.20;38.90;;;;;;5033815;28;20120;-80